Time;durP1;ratioP1;P1;durP2;ratioP2;P2;SDS_P1;SDS_P2;PMS_P1;PMS_P2;Temp;Humidity;BMP_temperature;BMP_pressure;BME280_temperature;BME280_humidity;BME280_pressure;Samples;Min_cycle;Max_cycle;Signal;HPM_P1;HPM_P2
2022/09/22 00:01:39;;;;;;;6.93;2.17;;;11.10;97.90;;;;;;4877017;29;20025;-71
2022/09/22 00:04:08;;;;;;;8.15;2.85;;;11.10;97.90;;;;;;4876808;29;20060;-70
2022/09/22 00:06:42;;;;;;;6.28;2.42;;;11.10;98.00;;;;;;4876742;29;20029;-71
2022/09/22 00:09:10;;;;;;;13.05;2.53;;;11.00;98.00;;;;;;4876479;29;20053;-70
2022/09/22 00:11:37;;;;;;;;;;;10.90;98.10;;;;;;4876976;29;20460;-72
2022/09/22 00:14:12;;;;;;;5.63;2.42;;;10.90;98.10;;;;;;4875437;29;19983;-70
2022/09/22 00:16:41;;;;;;;9.00;2.10;;;10.80;98.20;;;;;;4876805;29;20044;-68
2022/09/22 00:19:08;;;;;;;;;;;10.80;98.30;;;;;;4876848;29;20112;-70
2022/09/22 00:21:34;;;;;;;7.15;2.50;;;10.80;98.40;;;;;;4876419;29;19972;-70
2022/09/22 00:24:01;;;;;;;8.57;2.50;;;10.80;98.30;;;;;;4876198;29;20037;-70
2022/09/22 00:26:27;;;;;;;8.70;2.42;;;10.70;98.30;;;;;;4876300;29;20039;-70
2022/09/22 00:28:53;;;;;;;7.13;2.00;;;10.70;98.30;;;;;;4876338;29;20033;-69
2022/09/22 00:31:21;;;;;;;7.00;2.45;;;10.70;98.30;;;;;;4876619;29;20025;-71
2022/09/22 00:33:48;;;;;;;4.40;2.38;;;10.70;98.30;;;;;;4876423;29;20033;-71
2022/09/22 00:36:15;;;;;;;4.55;1.98;;;10.60;98.30;;;;;;4876317;29;20033;-70
2022/09/22 00:38:41;;;;;;;9.48;2.78;;;10.60;98.30;;;;;;4876087;29;20044;-71
2022/09/22 00:41:15;;;;;;;7.78;2.17;;;10.50;98.30;;;;;;4876095;29;20033;-70
2022/09/22 00:43:42;;;;;;;7.80;2.33;;;10.60;98.40;;;;;;4876528;29;20028;-70
2022/09/22 00:46:13;;;;;;;5.80;2.37;;;10.50;98.40;;;;;;4876205;29;20391;-72
2022/09/22 00:49:02;;;;;;;11.32;2.20;;;10.50;98.30;;;;;;4876046;29;20029;-71
2022/09/22 00:51:33;;;;;;;5.60;2.00;;;10.50;98.30;;;;;;4878595;29;20126;-70
2022/09/22 00:54:02;;;;;;;6.32;2.03;;;10.40;98.30;;;;;;4879477;29;20063;-71
2022/09/22 00:56:44;;;;;;;4.95;1.88;;;10.40;98.30;;;;;;4879376;29;20128;-71
2022/09/22 00:59:15;;;;;;;5.53;2.22;;;10.40;98.30;;;;;;4879415;29;20029;-71
2022/09/22 01:01:41;;;;;;;6.68;1.95;;;10.40;98.30;;;;;;4863218;29;20037;-70
2022/09/22 01:04:07;;;;;;;4.38;2.08;;;10.30;98.30;;;;;;4879182;29;20358;-70
2022/09/22 01:06:34;;;;;;;3.97;1.95;;;10.40;98.40;;;;;;4879509;29;20037;-71
2022/09/22 01:09:01;;;;;;;8.80;2.10;;;10.30;98.30;;;;;;4879089;29;20045;-70
2022/09/22 01:11:28;;;;;;;6.03;1.98;;;10.30;98.20;;;;;;4879268;29;20100;-71
2022/09/22 01:14:16;;;;;;;9.30;2.20;;;10.30;98.30;;;;;;4879212;29;20025;-71
2022/09/22 01:16:45;;;;;;;;;;;10.40;98.20;;;;;;4879855;29;20280;-71
2022/09/22 01:19:27;;;;;;;7.97;2.38;;;10.30;98.30;;;;;;4879028;29;19911;-70
2022/09/22 01:22:24;;;;;;;10.18;2.65;;;10.30;98.30;;;;;;4879017;29;20037;-69
2022/09/22 01:25:09;;;;;;;6.32;1.98;;;10.20;98.30;;;;;;4868933;29;20043;-71
2022/09/22 01:27:53;;;;;;;4.82;2.20;;;10.20;98.30;;;;;;4878979;29;20112;-70
2022/09/22 01:30:29;;;;;;;7.28;2.08;;;10.20;98.30;;;;;;4878879;29;20029;-71
2022/09/22 01:33:01;;;;;;;5.00;2.00;;;10.20;98.30;;;;;;4877864;29;20244;-70
2022/09/22 01:35:48;;;;;;;4.40;2.15;;;10.10;98.30;;;;;;4882489;29;20040;-71
2022/09/22 01:38:34;;;;;;;6.25;1.80;;;10.10;98.40;;;;;;4897643;29;20055;-71
2022/09/22 01:41:14;;;;;;;5.80;2.08;;;10.10;98.40;;;;;;4897539;29;20036;-70
2022/09/22 01:43:49;;;;;;;6.15;2.17;;;10.10;98.40;;;;;;4897914;29;20037;-70
2022/09/22 01:46:28;;;;;;;3.90;1.98;;;10.10;98.40;;;;;;4897614;29;20033;-70
2022/09/22 01:48:58;;;;;;;5.68;2.05;;;10.10;98.50;;;;;;4897414;29;20040;-70
2022/09/22 01:51:28;;;;;;;5.40;2.13;;;10.10;98.50;;;;;;4897420;29;20422;-70
2022/09/22 01:54:00;;;;;;;8.88;2.70;;;10.10;98.50;;;;;;4896396;29;20043;-71
2022/09/22 01:56:28;;;;;;;5.55;2.40;;;10.20;98.40;;;;;;4897260;29;20036;-71
2022/09/22 01:58:58;;;;;;;4.88;2.47;;;10.10;98.40;;;;;;4897318;29;20359;-70
2022/09/22 02:01:54;;;;;;;4.65;2.25;;;10.10;98.40;;;;;;4897271;29;20039;-71
2022/09/22 02:04:41;;;;;;;8.73;2.03;;;10.10;98.40;;;;;;4914697;29;20418;-71
2022/09/22 02:07:19;;;;;;;5.38;2.22;;;10.00;98.40;;;;;;4916529;29;20314;-71
2022/09/22 02:09:47;;;;;;;6.75;2.30;;;10.00;98.40;;;;;;4915859;29;20047;-71
2022/09/22 02:12:17;;;;;;;4.57;2.00;;;10.00;98.40;;;;;;4916033;29;20407;-71
2022/09/22 02:14:45;;;;;;;5.75;2.00;;;10.00;98.40;;;;;;4915887;29;20425;-71
2022/09/22 02:17:12;;;;;;;4.17;1.90;;;9.90;98.90;;;;;;4915650;29;20098;-72
2022/09/22 02:19:40;;;;;;;3.95;2.28;;;9.90;99.00;;;;;;4916272;29;20431;-71
2022/09/22 02:22:06;;;;;;;4.38;2.65;;;9.90;99.00;;;;;;4915709;29;20044;-71
2022/09/22 02:24:41;;;;;;;6.70;2.28;;;9.90;99.00;;;;;;4915671;29;20494;-71
2022/09/22 02:27:12;;;;;;;6.03;1.88;;;9.90;98.90;;;;;;4915743;29;20426;-71
2022/09/22 02:29:43;;;;;;;6.43;2.60;;;9.90;98.90;;;;;;4915690;29;20024;-71
2022/09/22 02:32:13;;;;;;;4.43;1.95;;;9.90;98.90;;;;;;4915489;29;20463;-70
2022/09/22 02:34:39;;;;;;;5.13;2.00;;;9.80;99.00;;;;;;4915935;29;20458;-70
2022/09/22 02:37:08;;;;;;;4.85;2.25;;;9.80;98.90;;;;;;4915423;29;20483;-72
2022/09/22 02:40:06;;;;;;;5.97;2.42;;;9.80;98.90;;;;;;4915465;29;20374;-71
2022/09/22 02:42:41;;;;;;;5.35;2.20;;;9.80;98.90;;;;;;4914397;29;20040;-70
2022/09/22 02:45:18;;;;;;;3.67;2.47;;;9.80;98.90;;;;;;4915511;29;20471;-70
2022/09/22 02:48:16;;;;;;;6.13;2.30;;;9.80;98.80;;;;;;4914484;29;20032;-71
2022/09/22 02:50:43;;;;;;;7.72;2.38;;;9.80;99.00;;;;;;4915120;29;20123;-71
2022/09/22 02:53:12;;;;;;;7.32;2.08;;;9.80;99.00;;;;;;4915122;29;20383;-70
2022/09/22 02:55:39;;;;;;;5.72;1.98;;;9.80;99.00;;;;;;4915556;29;20359;-69
2022/09/22 02:58:04;;;;;;;4.90;2.10;;;9.70;98.80;;;;;;4915048;29;20040;-71
2022/09/22 03:00:31;;;;;;;4.35;2.33;;;9.70;98.70;;;;;;4913811;29;20084;-70
2022/09/22 03:02:57;;;;;;;6.25;2.03;;;9.70;99.00;;;;;;4914933;29;20506;-70
2022/09/22 03:05:23;;;;;;;6.30;2.10;;;9.70;99.10;;;;;;4914982;29;20341;-71
2022/09/22 03:07:48;;;;;;;6.10;2.35;;;9.70;99.10;;;;;;4915022;29;20028;-71
2022/09/22 03:10:14;;;;;;;5.57;2.10;;;9.60;98.90;;;;;;4914901;29;20296;-70
2022/09/22 03:12:42;;;;;;;13.02;2.00;;;9.60;99.00;;;;;;4914549;29;20482;-72
2022/09/22 03:15:13;;;;;;;3.70;1.98;;;9.60;99.00;;;;;;4914899;29;20048;-71
2022/09/22 03:17:40;;;;;;;4.30;1.95;;;9.60;99.10;;;;;;4914504;29;20046;-71
2022/09/22 03:20:09;;;;;;;8.80;1.90;;;9.60;99.10;;;;;;4897956;29;20137;-70
2022/09/22 03:22:35;;;;;;;5.70;1.98;;;9.70;99.10;;;;;;4915080;29;20267;-70
2022/09/22 03:25:01;;;;;;;6.80;2.35;;;9.60;99.20;;;;;;4914575;29;20043;-71
2022/09/22 03:27:27;;;;;;;9.50;2.00;;;9.60;99.20;;;;;;4914563;29;20383;-70
2022/09/22 03:29:54;;;;;;;4.25;1.70;;;9.60;99.10;;;;;;4914509;29;20051;-71
2022/09/22 03:32:20;;;;;;;3.85;2.20;;;9.50;99.00;;;;;;4914625;29;20504;-71
2022/09/22 03:34:47;;;;;;;4.78;2.15;;;9.50;99.10;;;;;;4898266;29;20032;-71
2022/09/22 03:37:13;;;;;;;5.95;2.15;;;9.60;99.00;;;;;;4914442;29;20107;-71
2022/09/22 03:39:39;;;;;;;4.40;1.77;;;9.50;99.00;;;;;;4914340;29;20332;-71
2022/09/22 03:42:04;;;;;;;3.28;1.50;;;9.60;99.10;;;;;;4914657;29;20178;-70
2022/09/22 03:44:30;;;;;;;5.40;2.00;;;9.60;99.30;;;;;;4914319;29;20074;-71
2022/09/22 03:46:56;;;;;;;8.32;2.45;;;9.60;99.40;;;;;;4897579;29;20069;-72
2022/09/22 03:49:21;;;;;;;6.80;1.92;;;9.60;99.30;;;;;;4915227;29;20032;-71
2022/09/22 03:51:47;;;;;;;5.57;1.85;;;9.60;99.30;;;;;;4914597;29;20040;-71
2022/09/22 03:54:13;;;;;;;10.85;2.72;;;9.60;99.10;;;;;;4914102;29;20036;-70
2022/09/22 03:56:38;;;;;;;5.25;1.88;;;9.60;99.10;;;;;;4914066;29;20081;-71
2022/09/22 03:59:04;;;;;;;4.05;1.77;;;9.50;99.10;;;;;;4914067;29;20091;-71
2022/09/22 04:01:30;;;;;;;6.55;1.90;;;9.60;99.10;;;;;;4914598;29;20020;-70
2022/09/22 04:03:56;;;;;;;4.57;2.03;;;9.50;99.10;;;;;;4897301;29;20039;-71
2022/09/22 04:06:22;;;;;;;6.05;1.75;;;9.40;99.20;;;;;;4914136;29;20032;-71
2022/09/22 04:08:47;;;;;;;4.38;1.60;;;9.40;99.20;;;;;;4914060;29;20555;-71
2022/09/22 04:11:13;;;;;;;4.78;2.03;;;9.50;99.30;;;;;;4914099;29;20036;-71
2022/09/22 04:13:39;;;;;;;4.40;1.88;;;9.40;99.20;;;;;;4914573;29;20514;-70
2022/09/22 04:16:04;;;;;;;6.15;1.73;;;9.50;99.10;;;;;;4914104;29;20063;-70
2022/09/22 04:18:31;;;;;;;3.83;1.83;;;9.40;99.20;;;;;;4914058;29;20048;-71
2022/09/22 04:20:58;;;;;;;8.18;1.63;;;9.40;99.30;;;;;;4914148;29;20050;-71
2022/09/22 04:23:25;;;;;;;5.68;1.75;;;9.30;99.30;;;;;;4914266;29;20042;-71
2022/09/22 04:25:51;;;;;;;8.55;2.00;;;9.30;99.50;;;;;;4916590;29;20036;-71
2022/09/22 04:28:17;;;;;;;5.32;1.92;;;9.30;99.50;;;;;;4918111;29;20358;-72
2022/09/22 04:30:42;;;;;;;5.22;1.65;;;9.40;99.90;;;;;;4917703;29;20511;-71
2022/09/22 04:33:09;;;;;;;9.27;1.88;;;9.40;99.40;;;;;;4916680;29;20325;-71
2022/09/22 04:35:36;;;;;;;4.60;1.80;;;9.40;99.30;;;;;;4900774;29;20028;-71
2022/09/22 04:38:01;;;;;;;10.02;1.77;;;9.30;99.40;;;;;;4917403;29;20032;-72
2022/09/22 04:40:28;;;;;;;8.27;1.83;;;9.40;99.40;;;;;;4918066;29;20532;-72
2022/09/22 04:42:54;;;;;;;4.47;1.80;;;9.40;99.30;;;;;;4917513;29;20028;-71
2022/09/22 04:45:20;;;;;;;8.88;2.28;;;9.30;99.40;;;;;;4917315;29;20071;-72
2022/09/22 04:47:50;;;;;;;4.35;1.52;;;9.30;99.40;;;;;;4917260;29;20055;-72
2022/09/22 04:50:18;;;;;;;4.82;1.67;;;9.30;99.40;;;;;;4917474;29;20392;-71
2022/09/22 04:52:46;;;;;;;8.05;2.80;;;9.30;99.20;;;;;;4917753;29;20075;-71
2022/09/22 04:55:12;;;;;;;8.60;1.92;;;9.30;99.40;;;;;;4900369;29;20038;-72
2022/09/22 04:57:38;;;;;;;4.90;1.85;;;9.30;99.50;;;;;;4917102;29;20039;-71
2022/09/22 05:00:04;;;;;;;5.28;2.28;;;9.40;99.50;;;;;;4916081;29;20119;-72
2022/09/22 05:02:30;;;;;;;4.63;2.10;;;9.40;99.80;;;;;;4900358;29;20036;-70
2022/09/22 05:04:56;;;;;;;6.13;1.80;;;9.40;99.80;;;;;;4917033;29;20100;-71
2022/09/22 05:07:21;;;;;;;6.97;2.08;;;9.40;99.50;;;;;;4900928;29;20028;-73
2022/09/22 05:09:47;;;;;;;3.58;1.63;;;9.30;99.60;;;;;;4928370;29;20052;-71
2022/09/22 05:12:13;;;;;;;4.43;1.83;;;9.30;99.60;;;;;;4916835;29;20103;-71
2022/09/22 05:14:38;;;;;;;6.97;2.15;;;9.30;99.50;;;;;;4917041;29;20029;-71
2022/09/22 05:17:05;;;;;;;2.92;1.38;;;9.30;99.40;;;;;;4916781;29;20040;-72
2022/09/22 05:19:31;;;;;;;6.70;1.85;;;9.40;99.50;;;;;;4917036;29;20103;-71
2022/09/22 05:21:56;;;;;;;8.52;2.20;;;9.40;99.60;;;;;;4916785;29;20028;-71
2022/09/22 05:24:22;;;;;;;7.03;1.80;;;9.40;99.50;;;;;;4916723;29;20079;-71
2022/09/22 05:26:48;;;;;;;4.50;1.90;;;9.40;99.70;;;;;;4916524;29;20052;-71
2022/09/22 05:29:17;;;;;;;6.05;2.20;;;9.40;99.70;;;;;;4916468;29;20032;-71
2022/09/22 05:31:44;;;;;;;9.20;2.20;;;9.50;99.70;;;;;;4915689;29;20078;-71
2022/09/22 05:34:10;;;;;;;4.72;2.28;;;9.50;99.60;;;;;;4916913;29;20052;-71
2022/09/22 05:36:36;;;;;;;8.40;3.05;;;9.50;99.50;;;;;;4897513;29;20040;-71
2022/09/22 05:39:02;;;;;;;9.18;2.30;;;9.50;99.50;;;;;;4897499;29;20029;-72
2022/09/22 05:41:27;;;;;;;4.70;2.60;;;9.50;99.50;;;;;;4897542;29;20028;-71
2022/09/22 05:43:53;;;;;;;5.28;2.88;;;9.50;99.60;;;;;;4897340;29;20443;-70
2022/09/22 05:46:20;;;;;;;16.50;2.80;;;9.50;99.70;;;;;;4897336;29;20016;-71
2022/09/22 05:48:45;;;;;;;10.77;3.40;;;9.60;99.90;;;;;;4897836;29;20032;-72
2022/09/22 05:51:11;;;;;;;15.40;4.22;;;9.60;99.90;;;;;;4896181;29;20029;-71
2022/09/22 05:53:37;;;;;;;8.52;3.20;;;9.70;99.90;;;;;;4896225;29;20035;-71
2022/09/22 05:56:02;;;;;;;8.02;3.33;;;9.70;99.70;;;;;;4897197;29;20048;-71
2022/09/22 05:58:28;;;;;;;9.23;3.25;;;9.70;99.80;;;;;;4912365;29;20033;-71
2022/09/22 06:00:56;;;;;;;6.90;3.05;;;9.70;99.80;;;;;;4899407;29;20033;-71
2022/09/22 06:03:23;;;;;;;7.82;2.50;;;9.80;99.90;;;;;;4897540;29;20033;-72
2022/09/22 06:05:48;;;;;;;8.50;2.17;;;9.80;99.70;;;;;;4897394;29;20033;-72
2022/09/22 06:08:14;;;;;;;14.38;5.32;;;9.80;99.80;;;;;;4897163;29;20044;-72
2022/09/22 06:10:40;;;;;;;9.07;2.50;;;9.80;99.80;;;;;;4898814;29;20119;-71
2022/09/22 06:13:08;;;;;;;6.45;2.60;;;9.80;99.90;;;;;;4897531;29;20033;-70
2022/09/22 06:15:35;;;;;;;6.28;2.55;;;9.80;99.90;;;;;;4897248;29;20112;-71
2022/09/22 06:18:05;;;;;;;8.50;3.22;;;9.90;99.90;;;;;;4896445;29;20071;-72
2022/09/22 06:20:32;;;;;;;7.70;3.17;;;9.90;99.90;;;;;;4896910;29;20036;-73
2022/09/22 06:22:58;;;;;;;7.00;2.65;;;10.00;99.70;;;;;;4895330;29;20025;-73
2022/09/22 06:25:26;;;;;;;13.20;2.60;;;10.10;99.60;;;;;;4896168;29;20111;-73
2022/09/22 06:28:05;;;;;;;;;;;10.10;99.60;;;;;;4897183;29;20584;-74
2022/09/22 06:30:35;;;;;;;11.60;2.60;;;10.10;99.40;;;;;;4896566;29;19922;-73
2022/09/22 06:33:02;;;;;;;10.70;2.83;;;10.20;99.60;;;;;;4896578;29;20447;-74
2022/09/22 06:35:35;;;;;;;4.07;2.13;;;10.20;99.50;;;;;;4896616;29;20119;-72
2022/09/22 06:38:01;;;;;;;5.93;2.35;;;10.30;99.50;;;;;;4895217;29;20033;-73
2022/09/22 06:40:27;;;;;;;7.40;3.25;;;10.40;99.70;;;;;;4896966;29;20119;-74
2022/09/22 06:42:57;;;;;;;14.27;4.28;;;10.40;99.40;;;;;;4895409;29;20040;-71
2022/09/22 06:45:25;;;;;;;13.20;5.32;;;10.40;99.40;;;;;;4879629;29;20363;-71
2022/09/22 06:47:56;;;;;;;11.25;4.43;;;10.50;99.60;;;;;;4909611;29;20028;-72
2022/09/22 06:50:21;;;;;;;11.90;3.83;;;10.50;99.50;;;;;;4902809;29;20056;-71
2022/09/22 06:52:50;;;;;;;6.60;2.30;;;10.60;99.70;;;;;;4897023;29;20451;-71
2022/09/22 06:55:19;;;;;;;15.73;5.22;;;10.70;99.60;;;;;;4896389;29;20044;-71
2022/09/22 06:57:45;;;;;;;10.35;4.85;;;10.70;99.50;;;;;;4879625;29;20044;-73
2022/09/22 07:00:13;;;;;;;13.27;4.80;;;10.80;99.50;;;;;;4896255;29;20108;-72
2022/09/22 07:02:39;;;;;;;7.50;3.20;;;10.80;99.50;;;;;;4896230;29;20024;-72
2022/09/22 07:05:04;;;;;;;6.13;2.60;;;10.90;99.40;;;;;;4896331;29;20032;-70
2022/09/22 07:07:31;;;;;;;8.30;2.85;;;10.90;99.40;;;;;;4896711;29;20039;-71
2022/09/22 07:09:57;;;;;;;5.18;2.22;;;11.00;99.10;;;;;;4896133;29;20073;-71
2022/09/22 07:12:24;;;;;;;6.65;2.22;;;11.10;99.10;;;;;;4896687;29;20037;-70
2022/09/22 07:14:52;;;;;;;7.50;2.58;;;11.10;99.00;;;;;;4896208;29;20506;-71
2022/09/22 07:17:19;;;;;;;;;;;11.20;99.30;;;;;;4895831;29;20127;-71
2022/09/22 07:19:49;;;;;;;5.75;2.15;;;11.30;99.10;;;;;;4896818;29;19908;-71
2022/09/22 07:22:18;;;;;;;11.65;3.03;;;11.30;99.00;;;;;;4879663;29;20028;-72
2022/09/22 07:24:43;;;;;;;6.63;2.85;;;11.40;98.80;;;;;;4896291;29;20041;-72
2022/09/22 07:27:13;;;;;;;11.00;2.65;;;11.50;99.00;;;;;;4895923;29;20490;-72
2022/09/22 07:29:38;;;;;;;6.07;2.88;;;11.60;99.10;;;;;;4896299;29;20104;-73
2022/09/22 07:32:05;;;;;;;35.13;14.32;;;11.60;99.20;;;;;;4896110;29;20032;-71
2022/09/22 07:34:31;;;;;;;14.30;5.38;;;11.70;99.90;;;;;;4879763;29;20035;-71
2022/09/22 07:36:58;;;;;;;15.98;7.50;;;11.80;99.70;;;;;;4894404;29;20037;-72
2022/09/22 07:39:24;;;;;;;10.48;2.25;;;11.90;99.70;;;;;;4895009;29;20055;-72
2022/09/22 07:41:50;;;;;;;7.25;2.15;;;12.00;99.30;;;;;;4896908;29;20052;-71
2022/09/22 07:47:02;;;;;;;7.53;2.80;;;12.10;98.90;;;;;;4895680;29;20068;-72
2022/09/22 07:49:28;;;;;;;7.82;2.45;;;12.20;98.90;;;;;;4895367;29;20032;-74
2022/09/22 07:51:56;;;;;;;10.85;2.47;;;12.30;98.80;;;;;;4879786;29;20370;-72
2022/09/22 07:54:22;;;;;;;;;;;12.40;98.80;;;;;;4896377;29;20120;-73
2022/09/22 07:56:48;;;;;;;6.88;2.33;;;12.40;98.80;;;;;;4895777;29;19998;-72
2022/09/22 07:59:15;;;;;;;9.68;1.95;;;12.50;98.70;;;;;;4895674;29;20033;-71
2022/09/22 08:01:43;;;;;;;6.85;2.72;;;12.60;98.90;;;;;;4898517;29;20119;-73
2022/09/22 08:04:15;;;;;;;7.50;2.45;;;12.60;98.60;;;;;;4899480;29;20063;-72
2022/09/22 08:06:45;;;;;;;5.65;1.85;;;12.70;98.60;;;;;;4898961;29;20037;-73
2022/09/22 08:09:12;;;;;;;4.15;2.45;;;12.80;98.50;;;;;;4898784;29;20044;-73
2022/09/22 08:11:38;;;;;;;10.82;2.58;;;12.90;98.40;;;;;;4899039;29;20085;-71
2022/09/22 08:14:06;;;;;;;8.43;2.95;;;13.00;98.60;;;;;;4899244;29;20025;-72
2022/09/22 08:16:35;;;;;;;10.85;3.67;;;13.00;98.60;;;;;;4900289;29;20025;-75
2022/09/22 08:19:09;;;;;;;;;;;13.10;98.60;;;;;;4899054;29;20071;-76
2022/09/22 08:21:35;;;;;;;6.75;2.28;;;13.20;98.00;;;;;;4899400;29;19911;-73
2022/09/22 08:24:07;;;;;;;9.35;1.98;;;13.30;97.70;;;;;;4899604;29;20494;-75
2022/09/22 08:26:35;;;;;;;5.38;1.67;;;13.40;97.90;;;;;;4898623;29;20375;-74
2022/09/22 08:29:02;;;;;;;4.35;1.83;;;13.50;97.90;;;;;;4899544;29;20025;-73
2022/09/22 08:31:28;;;;;;;7.43;2.50;;;13.70;98.00;;;;;;4900217;29;20020;-74
2022/09/22 08:33:54;;;;;;;9.18;2.75;;;13.70;98.00;;;;;;4899695;29;20033;-75
2022/09/22 08:36:22;;;;;;;6.60;1.90;;;13.80;98.10;;;;;;4897926;29;20048;-74
2022/09/22 08:38:48;;;;;;;11.77;2.75;;;13.90;97.50;;;;;;4899436;29;20188;-72
2022/09/22 08:41:26;;;;;;;8.23;2.15;;;14.10;96.70;;;;;;4899012;29;20119;-73
2022/09/22 08:44:01;;;;;;;5.22;2.08;;;14.20;96.30;;;;;;4899683;29;20028;-73
2022/09/22 08:46:33;;;;;;;17.67;3.50;;;14.40;96.40;;;;;;4899536;29;20063;-73
2022/09/22 08:52:39;;;;;;;14.32;3.05;;;15.20;96.30;;;;;;4880574;29;20498;-74
2022/09/22 08:55:12;;;;;;;16.70;9.00;;;16.60;96.40;;;;;;4880964;29;20079;-75
2022/09/22 08:58:06;;;;;;;15.80;5.07;;;17.60;97.20;;;;;;4880787;29;20186;-71
2022/09/22 09:01:10;;;;;;;9.30;2.83;;;18.50;95.50;;;;;;4879639;29;20120;-73
2022/09/22 09:03:38;;;;;;;8.05;1.98;;;19.50;94.10;;;;;;4879453;29;20034;-73
2022/09/22 09:06:25;;;;;;;9.60;2.80;;;20.80;92.80;;;;;;4879410;29;20048;-73
2022/09/22 09:09:23;;;;;;;15.30;5.30;;;22.20;87.90;;;;;;4887637;29;20037;-72
2022/09/22 09:12:15;;;;;;;8.10;2.60;;;23.40;82.80;;;;;;4885850;29;20068;-73
2022/09/22 09:14:56;;;;;;;7.15;2.55;;;24.90;83.70;;;;;;5098857;27;20167;-72
2022/09/22 09:17:29;;;;;;;5.88;1.85;;;25.80;76.70;;;;;;5088653;28;20032;-72
2022/09/22 09:20:11;;;;;;;7.68;1.65;;;26.30;70.90;;;;;;5088600;28;20052;-74
2022/09/22 09:22:42;;;;;;;5.30;1.75;;;27.10;71.20;;;;;;5088269;28;20039;-75
2022/09/22 09:25:40;;;;;;;6.95;2.00;;;27.70;67.00;;;;;;5088175;28;20119;-75
2022/09/22 09:28:19;;;;;;;4.88;1.63;;;28.60;66.30;;;;;;5087885;28;20036;-75
2022/09/22 09:30:49;;;;;;;4.57;1.10;;;28.40;59.60;;;;;;5087797;28;20024;-75
2022/09/22 09:33:54;;;;;;;5.25;1.17;;;28.80;60.80;;;;;;5087608;28;20166;-74
2022/09/22 09:36:22;;;;;;;4.70;1.67;;;29.60;61.10;;;;;;5087462;28;20106;-75
2022/09/22 09:38:53;;;;;;;8.65;3.47;;;29.70;56.00;;;;;;5087479;28;20707;-75
2022/09/22 09:41:22;;;;;;;5.78;1.77;;;29.80;55.60;;;;;;5087641;28;20032;-74
2022/09/22 09:43:50;;;;;;;3.92;1.30;;;29.70;55.80;;;;;;5086466;28;20131;-74
2022/09/22 09:46:27;;;;;;;6.18;1.38;;;29.90;56.10;;;;;;5086543;28;20056;-72
2022/09/22 09:49:15;;;;;;;4.43;1.13;;;30.20;54.60;;;;;;5087363;28;20040;-72
2022/09/22 09:51:48;;;;;;;4.35;1.40;;;29.40;49.60;;;;;;5087552;28;20084;-74
2022/09/22 09:54:16;;;;;;;5.15;1.40;;;30.20;54.70;;;;;;5087070;28;20068;-73
2022/09/22 09:57:20;;;;;;;5.30;1.27;;;30.30;52.70;;;;;;5087216;28;20437;-73
2022/09/22 10:03:03;;;;;;;5.32;1.40;;;31.00;51.50;;;;;;5064258;28;20040;-74
2022/09/22 10:05:31;;;;;;;7.70;1.75;;;31.30;50.10;;;;;;5063284;28;20024;-73
2022/09/22 10:08:02;;;;;;;12.00;7.53;;;31.10;48.60;;;;;;5067101;28;20025;-74
2022/09/22 10:10:35;;;;;;;16.98;8.50;;;31.50;48.20;;;;;;5067385;28;20028;-73
2022/09/22 10:13:04;;;;;;;4.93;1.98;;;31.80;47.00;;;;;;5066764;28;20120;-74
2022/09/22 10:15:40;;;;;;;3.92;1.27;;;31.80;47.70;;;;;;5066939;28;20032;-74
2022/09/22 10:18:24;;;;;;;6.82;1.83;;;32.30;46.50;;;;;;5066986;28;20044;-73
2022/09/22 10:21:19;;;;;;;5.20;1.30;;;31.80;48.10;;;;;;5066639;28;20033;-74
2022/09/22 10:23:52;;;;;;;5.25;1.20;;;32.00;45.50;;;;;;5064657;28;20463;-74
2022/09/22 10:26:25;;;;;;;8.50;1.60;;;32.30;46.30;;;;;;5051599;28;20043;-75
2022/09/22 10:29:09;;;;;;;8.60;2.47;;;32.50;43.20;;;;;;5051941;28;20021;-74
2022/09/22 10:31:38;;;;;;;6.88;1.05;;;31.70;44.20;;;;;;5052577;28;20029;-72
2022/09/22 10:34:08;;;;;;;5.68;1.10;;;32.30;45.30;;;;;;5052679;28;20044;-74
2022/09/22 10:36:42;;;;;;;6.55;1.10;;;30.50;44.00;;;;;;5051689;28;20375;-74
2022/09/22 10:39:16;;;;;;;3.65;1.08;;;31.50;44.00;;;;;;5052546;28;20442;-72
2022/09/22 10:41:41;;;;;;;5.00;1.15;;;31.90;45.20;;;;;;5052729;28;20033;-74
2022/09/22 10:44:25;;;;;;;3.38;1.00;;;32.10;41.10;;;;;;5052327;28;20433;-73
2022/09/22 10:47:04;;;;;;;6.55;1.20;;;31.80;43.30;;;;;;5052751;28;20112;-72
2022/09/22 10:49:35;;;;;;;5.47;1.27;;;30.50;43.10;;;;;;5052662;28;20056;-76
2022/09/22 10:52:01;;;;;;;2.25;1.02;;;30.20;43.70;;;;;;5051999;28;20107;-72
2022/09/22 10:55:01;;;;;;;5.50;0.98;;;30.80;41.50;;;;;;5052123;28;20604;-73
2022/09/22 10:57:57;;;;;;;5.30;1.10;;;30.20;42.70;;;;;;5052443;28;20061;-74
2022/09/22 11:00:26;;;;;;;3.13;0.83;;;29.70;44.70;;;;;;5052399;28;20036;-75
2022/09/22 11:03:24;;;;;;;4.63;1.13;;;28.50;44.30;;;;;;5052339;28;20033;-74
2022/09/22 11:12:24;;;;;;;4.38;0.90;;;25.90;47.50;;;;;;5051888;28;20055;-73
2022/09/22 11:15:10;;;;;;;4.80;1.25;;;25.20;49.50;;;;;;5051745;28;20040;-72
2022/09/22 11:17:59;;;;;;;4.70;1.50;;;25.70;48.70;;;;;;5050635;28;20033;-74
2022/09/22 11:20:50;;;;;;;4.05;0.82;;;26.20;47.30;;;;;;5041477;28;20035;-73
2022/09/22 11:23:20;;;;;;;2.13;0.70;;;25.60;48.00;;;;;;5051790;28;20040;-72
2022/09/22 11:26:04;;;;;;;3.75;0.93;;;25.50;48.70;;;;;;5052243;28;20032;-74
2022/09/22 11:28:33;;;;;;;8.10;1.10;;;25.00;49.40;;;;;;5052031;28;20048;-75
2022/09/22 11:30:59;;;;;;;1.67;0.70;;;24.90;49.90;;;;;;5050908;28;20036;-73
2022/09/22 11:33:46;;;;;;;5.10;1.00;;;25.50;49.70;;;;;;5051663;28;20488;-72
2022/09/22 11:36:40;;;;;;;8.88;3.38;;;26.00;48.10;;;;;;5050927;28;20520;-73
2022/09/22 11:39:43;;;;;;;8.20;2.60;;;25.10;48.90;;;;;;5051377;28;20032;-72
2022/09/22 11:42:48;;;;;;;10.98;2.22;;;24.70;49.60;;;;;;5051662;28;20048;-72
2022/09/22 11:45:40;;;;;;;6.55;2.75;;;24.60;50.20;;;;;;5050977;28;20467;-73
2022/09/22 11:48:06;;;;;;;3.05;1.27;;;24.40;51.00;;;;;;5050052;28;20454;-74
2022/09/22 11:51:18;;;;;;;4.68;1.13;;;24.10;51.00;;;;;;5051319;28;20033;-72
2022/09/22 11:53:56;;;;;;;4.45;1.15;;;23.90;50.00;;;;;;5012171;28;20573;-71
2022/09/22 11:56:43;;;;;;;2.75;1.48;;;23.40;49.90;;;;;;5029094;28;20045;-73
2022/09/22 11:59:40;;;;;;;4.22;0.90;;;23.30;50.40;;;;;;5045102;28;20501;-72
2022/09/22 12:02:22;;;;;;;9.27;1.00;;;23.00;49.70;;;;;;5050411;28;20150;-71
2022/09/22 12:05:29;;;;;;;3.92;0.80;;;22.80;50.80;;;;;;5051378;28;20389;-73
2022/09/22 12:08:05;;;;;;;;;;;22.90;51.60;;;;;;5031982;28;20033;-74
2022/09/22 12:10:34;;;;;;;6.00;0.93;;;22.80;52.50;;;;;;5031876;28;20335;-70
2022/09/22 12:13:01;;;;;;;7.80;1.48;;;22.80;52.50;;;;;;5031095;28;20076;-72
2022/09/22 12:15:45;;;;;;;5.35;1.98;;;22.40;52.60;;;;;;5030942;28;20240;-70
2022/09/22 12:18:25;;;;;;;4.05;1.45;;;22.30;53.10;;;;;;5031053;28;20044;-70
2022/09/22 12:21:04;;;;;;;3.53;1.20;;;22.20;54.30;;;;;;5037920;28;20257;-69
2022/09/22 12:23:37;;;;;;;6.80;0.88;;;22.30;54.60;;;;;;5050809;28;20120;-71
2022/09/22 12:26:07;;;;;;;3.38;1.00;;;22.20;54.90;;;;;;5050584;28;20503;-72
2022/09/22 12:28:42;;;;;;;4.47;1.23;;;22.10;54.60;;;;;;5051285;28;20078;-72
2022/09/22 12:31:14;;;;;;;2.67;1.00;;;22.10;53.40;;;;;;5050836;28;20077;-70
2022/09/22 12:33:53;;;;;;;6.00;1.23;;;22.20;54.00;;;;;;5050371;28;20037;-69
2022/09/22 12:36:40;;;;;;;4.72;1.00;;;22.10;53.60;;;;;;5047832;28;20487;-71
2022/09/22 12:39:24;;;;;;;3.55;1.02;;;22.20;53.70;;;;;;5050727;28;20033;-72
2022/09/22 12:42:00;;;;;;;3.55;0.90;;;22.10;53.40;;;;;;5050716;28;20041;-71
2022/09/22 12:44:33;;;;;;;1.67;0.80;;;22.00;53.90;;;;;;5050946;28;20409;-71
2022/09/22 12:47:17;;;;;;;4.25;1.10;;;22.00;54.80;;;;;;5050663;28;20017;-71
2022/09/22 12:49:52;;;;;;;3.97;0.60;;;21.90;55.10;;;;;;5050789;28;20033;-72
2022/09/22 12:52:39;;;;;;;6.13;2.63;;;21.70;55.40;;;;;;5050627;28;20041;-72
2022/09/22 12:55:23;;;;;;;2.97;1.17;;;21.70;54.80;;;;;;5050769;28;20051;-71
2022/09/22 12:57:50;;;;;;;10.10;1.25;;;21.60;54.80;;;;;;5050742;28;20067;-71
2022/09/22 13:00:36;;;;;;;1.80;0.98;;;21.40;54.90;;;;;;5050578;28;20029;-72
2022/09/22 13:03:23;;;;;;;3.05;0.77;;;21.40;55.00;;;;;;5050682;28;20056;-74
2022/09/22 13:05:54;;;;;;;2.78;0.65;;;21.10;54.30;;;;;;5050169;28;20167;-72
2022/09/22 13:08:44;;;;;;;5.25;1.00;;;21.00;55.10;;;;;;5050408;28;20033;-72
2022/09/22 13:11:09;;;;;;;2.65;0.65;;;21.00;55.80;;;;;;5050805;28;20112;-71
2022/09/22 13:13:46;;;;;;;2.85;0.90;;;21.10;55.00;;;;;;5049693;28;20131;-71
2022/09/22 13:16:14;;;;;;;3.70;0.70;;;21.20;54.80;;;;;;5050639;28;20033;-69
2022/09/22 13:18:41;;;;;;;2.00;0.70;;;21.10;54.60;;;;;;5050384;28;20036;-71
2022/09/22 13:21:12;;;;;;;3.88;0.88;;;20.90;54.70;;;;;;5050171;28;20028;-71
2022/09/22 13:23:38;;;;;;;8.63;1.00;;;21.10;55.40;;;;;;5050428;28;20033;-71
2022/09/22 13:26:06;;;;;;;6.07;0.93;;;21.00;54.90;;;;;;5050083;28;20033;-70
2022/09/22 13:28:32;;;;;;;2.67;0.75;;;21.10;54.70;;;;;;5050792;28;20076;-72
2022/09/22 13:31:01;;;;;;;2.50;0.70;;;21.00;54.50;;;;;;5050520;28;20509;-72
2022/09/22 13:33:32;;;;;;;2.47;0.52;;;21.10;55.10;;;;;;5050033;28;20113;-71